Latest Weather Observations for Yeppoon

IDQ60801

Issued at 9:02 am EST Tuesday 9 February 2016 (issued every 30 minutes, with the page automatically refreshed every 10 minutes)

About weather observations | Map of weather stations | Latest weather observations for QLD | Other Formats
Station Details ID: 033294 Name: YEPPOON THE ESPLANADE Lat: -23.14 Lon: 150.75 Height: 5.5 m
Data from the previous 72 hours. | See also: Recent months at Yeppoon
Date/Time
EST
Temp
°C
App
Temp
°C
Dew
Point
Rel
Hum
%
Delta-T
°C
Wind Press
QNH
hPa
Press
MSL
hPa
Rain
since 9 am
mm
Dir
 
Spd
km/h
Gust
km/h
Spd
kts
Gust
kts
09/09:00am 26.6 26.1 20.0 67 4.3 ESE 22 33 12 18 1012.7 1012.7 0.2
09/08:30am 26.2 26.0 20.6 71 3.7 SE 22 33 12 18 1012.5 1012.5 0.2
09/08:00am 25.5 25.2 20.3 73 3.4 SE 22 35 12 19 1012.4 1012.4 0.2
09/07:30am 25.5 25.1 20.1 72 3.5 SE 22 33 12 18 1012.3 1012.3 0.2
09/07:00am 25.2 25.2 20.1 73 3.3 SE 20 32 11 17 1011.9 1011.9 0.2
09/06:30am 24.3 24.7 19.8 76 2.9 SE 17 28 9 15 1011.8 1011.8 0.2
09/06:00am 24.4 24.6 20.1 77 2.8 SE 19 26 10 14 1011.5 1011.5 0.2
09/05:30am 24.3 24.4 20.0 77 2.8 SE 19 28 10 15 1011.0 1011.0 0.2
09/05:00am 24.3 24.7 19.8 76 2.9 SE 17 28 9 15 1010.9 1010.9 0.2
09/04:30am 24.5 24.9 19.9 75 3.0 SE 17 24 9 13 1010.8 1010.8 0.2
09/04:00am 24.7 25.1 19.9 74 3.1 SE 17 24 9 13 1010.6 1010.6 0.2
09/03:30am 24.9 25.2 19.6 72 3.4 SSE 17 24 9 13 1010.9 1010.9 0.2
09/03:00am 25.1 25.9 19.8 72 3.4 SE 15 24 8 13 1010.7 1010.7 0.2
09/02:30am 25.6 25.4 19.7 70 3.8 SE 20 32 11 17 1010.8 1010.8 0.2
09/02:00am 26.0 25.9 19.5 67 4.2 ESE 19 33 10 18 1010.9 1010.9 0.2
09/01:30am 26.2 24.9 19.0 64 4.6 ESE 24 35 13 19 1011.3 1011.3 0.2
09/01:00am 26.3 24.2 19.0 64 4.7 ESE 28 41 15 22 1011.6 1011.6 0.2
09/12:30am 26.4 24.8 19.3 65 4.6 E 26 43 14 23 1012.0 1012.0 0.2
09/12:00am 26.5 25.2 19.9 67 4.3 ESE 26 37 14 20 1012.2 1012.2 0.2
 
Date/Time
EST
Temp
°C
App
Temp
°C
Dew
Point
Rel
Hum
%
Delta-T
°C
Wind Press
QNH
hPa
Press
MSL
hPa
Rain
since 9 am
mm
Dir
 
Spd
km/h
Gust
km/h
Spd
kts
Gust
kts
08/11:30pm 26.6 25.0 19.3 64 4.7 ESE 26 39 14 21 1012.3 1012.3 0.2
08/11:05pm 26.7 24.9 19.6 65 4.6 E 28 46 15 25 1012.5 1012.5 0.2
08/11:00pm 26.7 25.0 19.8 66 4.5 E 28 39 15 21 1012.6 1012.6 0.2
08/10:30pm 26.7 25.0 19.8 66 4.5 E 28 37 15 20 1012.9 1012.9 0.2
08/10:00pm 26.9 24.5 19.1 62 5.0 E 30 44 16 24 1013.0 1013.0 0.2
08/09:30pm 26.9 24.0 18.8 61 5.2 E 32 48 17 26 1012.9 1012.9 0.2
08/09:00pm 26.9 24.3 19.5 64 4.8 E 32 44 17 24 1012.8 1012.8 0.2
08/08:33pm 26.8 25.1 20.6 69 4.1 E 30 48 16 26 1012.6 1012.6 0.2
08/08:30pm 26.9 24.9 20.8 69 4.0 E 32 48 17 26 1012.6 1012.6 0.2
08/08:00pm 26.9 24.7 20.8 69 4.0 E 33 44 18 24 1012.2 1012.2 0.2
08/07:30pm 27.0 25.0 19.9 65 4.6 E 30 39 16 21 1011.9 1011.9 0.2
08/07:00pm 27.0 24.6 19.9 65 4.6 E 32 41 17 22 1011.6 1011.6 0.2
08/06:39pm 27.0 25.4 20.1 66 4.5 E 28 46 15 25 1011.3 1011.3 0.2
08/06:30pm 27.0 25.1 20.1 66 4.5 E 30 41 16 22 1011.2 1011.2 0.2
08/06:00pm 27.2 24.6 19.8 64 4.8 E 33 43 18 23 1011.1 1011.1 0.2
08/05:30pm 27.2 25.3 20.2 65 4.6 E 30 39 16 21 1010.8 1010.8 0.2
08/05:00pm 27.2 25.1 20.5 67 4.4 E 32 39 17 21 1010.4 1010.4 0.2
08/04:30pm 27.5 25.9 21.5 70 4.0 E 32 39 17 21 1009.9 1009.9 0.2
08/04:00pm 27.8 26.7 21.8 70 4.0 E 30 41 16 22 1010.0 1010.0 0.2
08/03:30pm 27.8 26.3 21.7 69 4.1 E 32 43 17 23 1009.9 1009.9 0.2
08/03:00pm 28.5 28.4 21.5 66 4.7 E 24 35 13 19 1010.2 1010.2 0.2
08/02:30pm 28.3 27.1 20.1 61 5.4 E 26 43 14 23 1010.6 1010.6 0.2
08/02:00pm 28.0 26.7 20.7 64 4.8 ESE 28 39 15 21 1011.0 1011.0 0.2
08/01:30pm 27.9 27.2 20.3 63 5.0 ESE 24 37 13 20 1011.5 1011.5 0.2
08/01:00pm 28.0 26.7 20.7 64 4.8 ESE 28 41 15 22 1011.7 1011.7 0.2
08/12:30pm 27.6 27.1 20.8 66 4.5 ESE 24 41 13 22 1011.9 1011.9 0.2
08/12:00pm 27.8 26.7 20.3 63 4.9 ESE 26 37 14 20 1012.3 1012.3 0.2
08/11:30am 27.8 26.4 20.5 64 4.8 ESE 28 44 15 24 1012.5 1012.5 0.2
08/11:00am 27.6 27.3 21.1 67 4.3 ESE 24 41 13 22 1012.6 1012.6 0.2
08/10:30am 27.4 26.2 20.9 67 4.3 ESE 28 41 15 22 1012.6 1012.6 0.2
08/10:00am 27.1 27.1 21.6 72 3.7 ESE 24 35 13 19 1012.9 1012.9 0.0
08/09:30am 26.4 26.1 21.1 72 3.5 ESE 24 35 13 19 1012.9 1012.9 0.0
08/09:00am 26.1 26.7 21.3 75 3.2 SE 20 32 11 17 1012.8 1012.8 4.8
08/08:30am 25.4 26.5 21.2 77 2.8 SE 17 28 9 15 1012.9 1012.9 4.8
08/08:00am 25.1 26.2 21.3 79 2.5 SE 17 24 9 13 1012.6 1012.6 4.8
08/07:30am 24.7 26.3 21.5 82 2.1 SE 15 22 8 12 1012.5 1012.5 4.8
08/07:00am 24.6 25.7 21.3 82 2.2 SSE 17 24 9 13 1012.2 1012.2 4.8
08/06:30am 24.4 26.1 21.7 85 1.8 SSE 15 26 8 14 1012.1 1012.1 4.8
08/06:00am 24.0 25.8 21.9 88 1.4 SSE 15 24 8 13 1011.8 1011.8 4.8
08/05:30am 24.0 25.9 22.0 88 1.3 SSE 15 22 8 12 1011.3 1011.3 4.8
08/05:00am 23.8 25.8 22.2 91 1.1 SSE 15 20 8 11 1011.1 1011.1 4.8
08/04:30am 23.7 26.0 22.7 94 0.7 SSE 15 20 8 11 1011.1 1011.1 4.8
08/04:00am 24.3 26.2 22.7 91 1.1 SE 17 26 9 14 1011.0 1011.0 4.8
08/03:30am 24.3 25.6 22.4 89 1.3 SE 19 28 10 15 1010.7 1010.7 4.2
08/03:00am 24.5 26.4 22.7 90 1.2 SE 17 26 9 14 1010.5 1010.5 4.2
08/02:30am 24.3 25.7 22.8 91 1.0 SE 20 33 11 18 1010.7 1010.7 4.2
08/02:00am 24.7 26.5 23.2 91 1.0 SE 19 39 10 21 1010.8 1010.8 4.0
08/01:30am 25.3 26.7 22.9 86 1.6 SE 20 32 11 17 1011.0 1011.0 3.4
08/01:00am 26.5 25.7 22.3 78 2.8 E 30 43 16 23 1011.1 1011.1 3.4
08/12:30am 26.6 26.1 22.1 76 3.0 ESE 28 41 15 22 1011.5 1011.5 3.4
08/12:03am 26.6 26.0 22.0 76 3.1 ESE 28 46 15 25 1011.8 1011.8 3.4
08/12:00am 26.5 26.1 21.7 75 3.2 ESE 26 43 14 23 1011.8 1011.8 3.4
 
Date/Time
EST
Temp
°C
App
Temp
°C
Dew
Point
Rel
Hum
%
Delta-T
°C
Wind Press
QNH
hPa
Press
MSL
hPa
Rain
since 9 am
mm
Dir
 
Spd
km/h
Gust
km/h
Spd
kts
Gust
kts
07/11:30pm 26.4 26.5 22.5 79 2.6 ESE 26 43 14 23 1012.2 1012.2 3.4
07/11:00pm 26.1 26.6 23.3 84 1.9 ESE 26 43 14 23 1012.3 1012.3 3.4
07/10:30pm 26.7 26.8 23.2 81 2.4 E 28 41 15 22 1012.2 1012.2 3.4
07/10:00pm 26.6 25.9 23.2 81 2.3 E 32 43 17 23 1012.1 1012.1 3.4
07/09:30pm 26.2 27.5 23.4 84 1.9 E 22 39 12 21 1012.1 1012.1 3.4
07/09:00pm 26.6 26.0 22.6 78 2.7 E 30 43 16 23 1011.5 1011.5 3.0
07/08:30pm 26.6 27.4 23.1 81 2.4 ESE 24 33 13 18 1011.3 1011.3 3.0
07/08:00pm 26.4 26.7 23.0 81 2.3 ESE 26 35 14 19 1011.1 1011.1 3.0
07/07:30pm 26.2 24.8 22.0 77 2.8 E 32 44 17 24 1010.8 1010.8 3.0
07/07:00pm 25.7 25.8 21.8 79 2.6 ESE 24 33 13 18 1010.6 1010.6 3.0
07/06:30pm 26.0 26.1 21.8 77 2.8 ESE 24 35 13 19 1010.3 1010.3 2.6
07/06:00pm 26.3 27.7 22.9 81 2.3 ESE 20 32 11 17 1010.0 1010.0 2.6
07/05:30pm 26.6 27.9 23.4 82 2.2 ESE 22 37 12 20 1009.4 1009.4 2.6
07/05:00pm 26.4 27.4 23.5 84 2.0 ESE 24 35 13 19 1009.1 1009.1 2.6
07/04:30pm 26.6 27.5 23.4 82 2.2 ESE 24 37 13 20 1008.6 1008.6 2.6
07/04:00pm 26.0 27.9 23.7 87 1.6 ESE 20 32 11 17 1008.6 1008.6 2.6
07/03:30pm 25.4 25.1 23.8 91 1.1 E 32 41 17 22 1008.7 1008.7 2.2
07/03:00pm 25.6 27.2 23.9 90 1.2 ESE 22 33 12 18 1008.9 1008.9 1.0
07/02:38pm 26.2 26.6 23.7 86 1.7 ESE 28 46 15 25 1009.0 1009.0 0.8
07/02:30pm 26.9 27.6 22.9 79 2.7 ESE 24 35 13 19 1008.9 1008.9 0.8
07/02:00pm 26.3 27.8 23.7 85 1.8 ESE 22 32 12 17 1009.1 1009.1 0.8
07/01:30pm 25.6 27.3 24.1 91 1.0 E 22 32 12 17 1009.4 1009.4 0.8
07/01:00pm 25.3 25.6 22.9 86 1.6 E 26 39 14 21 1009.4 1009.4 0.8
07/12:30pm 25.9 28.6 24.2 90 1.2 ESE 17 26 9 14 1009.5 1009.5 0.8
07/12:00pm 25.7 26.9 23.8 89 1.3 E 24 33 13 18 1009.9 1009.9 0.6
07/11:30am 27.0 28.1 23.0 79 2.7 ESE 22 35 12 19 1010.2 1010.2 0.2
07/11:00am 26.6 26.9 22.9 80 2.5 ESE 26 39 14 21 1010.4 1010.4 0.2
07/10:30am 26.5 28.4 23.7 84 1.9 SE 20 35 11 19 1010.4 1010.4 0.2
07/10:00am 26.7 27.8 23.0 80 2.5 ESE 22 37 12 20 1010.1 1010.1 0.0
07/09:30am 26.6 27.6 23.5 83 2.1 ESE 24 32 13 17 1010.0 1010.0 0.0
07/09:00am 25.6 27.7 23.7 89 1.3 ESE 19 28 10 15 1010.1 1010.1 3.6
07/08:30am 25.8 27.8 23.6 88 1.5 SE 19 26 10 14 1009.8 1009.8 3.6
07/08:00am 24.6 26.8 23.3 92 0.9 SE 17 28 9 15 1009.7 1009.7 3.4
07/07:30am 24.4 26.1 23.1 92 0.9 SE 19 33 10 18 1009.3 1009.3 3.0
07/07:00am 24.6 26.6 23.0 91 1.1 SSE 17 26 9 14 1008.9 1008.9 3.0
07/06:30am 25.0 27.1 23.1 89 1.3 SSE 17 28 9 15 1008.9 1008.9 3.0
07/06:00am 24.9 26.6 23.1 90 1.2 SE 19 32 10 17 1008.6 1008.6 3.0
07/05:30am 25.9 25.8 22.2 80 2.5 E 26 35 14 19 1008.1 1008.1 2.8
07/05:00am 25.7 25.8 22.6 83 2.1 ESE 26 43 14 23 1007.8 1007.8 2.8
07/04:30am 25.2 25.0 22.8 86 1.6 E 28 39 15 21 1007.5 1007.5 2.8
07/04:12am 25.3 24.2 22.8 86 1.7 ESE 33 52 18 28 1007.3 1007.3 2.6
07/04:00am 25.1 25.8 22.9 87 1.5 ESE 24 39 13 21 1007.4 1007.4 2.2
07/03:30am 25.1 24.0 22.4 85 1.8 E 32 46 17 25 1007.5 1007.5 2.2
07/03:26am 24.7 24.2 22.2 86 1.7 ESE 28 46 15 25 1007.6 1007.6 2.2
07/03:00am 24.3 26.1 23.3 94 0.7 SE 19 30 10 16 1007.5 1007.5 2.2
07/02:30am 25.0 25.6 22.8 87 1.5 ESE 24 35 13 19 1007.4 1007.4 2.0
07/02:00am 24.1 25.9 23.2 95 0.6 SE 19 26 10 14 1007.7 1007.7 2.0
07/01:30am 24.8 25.6 23.2 91 1.1 ESE 24 39 13 21 1007.9 1007.9 1.2
07/01:07am 25.4 25.5 23.2 88 1.5 ESE 28 52 15 28 1008.1 1008.1 1.0
07/01:00am 25.4 25.6 22.7 85 1.8 ESE 26 41 14 22 1008.1 1008.1 1.0
07/12:30am 25.0 25.8 23.1 89 1.3 ESE 24 35 13 19 1008.4 1008.4 1.0
07/12:04am 25.5 25.5 23.1 86 1.6 ESE 28 46 15 25 1008.7 1008.7 0.4
07/12:00am 25.5 25.1 23.0 86 1.7 ESE 30 46 16 25 1008.8 1008.8 0.4
 
Date/Time
EST
Temp
°C
App
Temp
°C
Dew
Point
Rel
Hum
%
Delta-T
°C
Wind Press
QNH
hPa
Press
MSL
hPa
Rain
since 9 am
mm
Dir
 
Spd
km/h
Gust
km/h
Spd
kts
Gust
kts
06/11:30pm 25.8 26.0 23.5 87 1.6 ESE 28 46 15 25 1009.0 1009.0 0.4
06/11:29pm 25.9 26.1 23.4 86 1.7 ESE 28 46 15 25 1008.9 1008.9 0.4
06/11:00pm 25.9 26.0 23.3 85 1.8 E 28 41 15 22 1009.0 1009.0 0.4
06/10:47pm 25.7 25.2 22.9 84 1.9 ESE 30 48 16 26 1009.2 1009.2 0.4
06/10:30pm 25.3 25.4 23.2 88 1.4 ESE 28 43 15 23 1009.3 1009.3 0.4
06/10:00pm 25.6 25.7 23.2 86 1.6 ESE 28 41 15 22 1009.5 1009.5 0.4
06/09:30pm 25.6 25.0 23.4 88 1.5 ESE 32 44 17 24 1009.2 1009.2 0.4
06/09:00pm 26.3 26.2 22.9 81 2.3 ESE 28 44 15 24 1008.9 1008.9 0.4
06/08:30pm 25.9 24.5 23.0 84 2.0 E 35 48 19 26 1008.6 1008.6 0.4
06/08:04pm 25.5 25.5 23.0 86 1.7 ESE 28 46 15 25 1008.2 1008.2 0.4
06/08:00pm 25.4 24.5 22.9 86 1.7 ESE 32 48 17 26 1008.2 1008.2 0.4
06/07:30pm 26.6 25.7 23.1 81 2.4 E 33 46 18 25 1007.9 1007.9 0.4
06/07:00pm 26.4 26.2 22.7 80 2.5 ESE 28 39 15 21 1007.4 1007.4 0.4
06/06:30pm 26.4 26.1 23.2 82 2.2 ESE 30 41 16 22 1006.8 1006.8 0.4
06/06:00pm 25.7 26.7 23.5 88 1.5 ESE 24 33 13 18 1006.2 1006.2 0.4
06/05:30pm 26.0 26.6 22.8 82 2.2 ESE 24 37 13 20 1005.9 1005.9 0.4
06/05:22pm 25.9 25.7 22.8 83 2.1 ESE 28 46 15 25 1005.8 1005.8 0.4
06/05:00pm 26.4 27.2 23.2 82 2.2 E 24 37 13 20 1005.6 1005.6 0.4
06/04:30pm 26.6 26.0 22.6 78 2.7 E 30 39 16 21 1005.6 1005.6 0.4
06/04:00pm 26.7 27.2 22.6 78 2.8 E 24 39 13 21 1005.5 1005.5 0.4
06/03:30pm 26.5 25.9 21.9 76 3.1 ESE 28 43 15 23 1005.5 1005.5 0.4
06/03:00pm 26.3 25.8 22.1 77 2.8 ESE 28 43 15 23 1005.6 1005.6 0.4
06/02:30pm 26.3 26.3 22.4 79 2.6 ESE 26 39 14 21 1006.1 1006.1 0.4
06/02:00pm 26.3 26.8 22.0 77 2.9 ESE 22 35 12 19 1006.2 1006.2 0.4
06/01:30pm 26.4 27.2 21.8 76 3.1 ESE 20 32 11 17 1006.2 1006.2 0.4
06/01:00pm 26.6 26.4 21.2 72 3.6 ESE 24 37 13 20 1006.4 1006.4 0.4
06/12:30pm 26.3 26.1 22.1 77 2.8 E 26 39 14 21 1006.6 1006.6 0.4
06/12:00pm 26.2 26.3 21.9 77 2.9 ESE 24 37 13 20 1006.7 1006.7 0.4
06/11:30am 26.2 26.7 22.7 81 2.4 E 24 37 13 20 1006.7 1006.7 0.4
06/11:00am 26.1 24.9 22.2 79 2.6 E 32 46 17 25 1006.4 1006.4 0.4
06/10:40am 25.8 24.5 22.5 82 2.2 E 33 52 18 28 1006.4 1006.4 0.4
06/10:30am 25.6 23.8 22.3 82 2.2 E 35 48 19 26 1006.2 1006.2 0.4
06/10:00am 25.4 25.6 22.7 85 1.8 ESE 26 41 14 22 1006.4 1006.4 0.4
06/09:30am 25.0 24.4 22.6 86 1.6 E 30 48 16 26 1006.4 1006.4 0.4
06/09:25am 25.1 24.6 22.9 87 1.5 ESE 30 48 16 26 1006.5 1006.5 0.4

Other Formats:

Comma delimited format used in spreadsheet applications
http://www.bom.gov.au/fwo/IDQ60801/IDQ60801.94373.axf

JavaScript Object Notation format (JSON) in row-major order
http://www.bom.gov.au/fwo/IDQ60801/IDQ60801.94373.json